Time;durP1;ratioP1;P1;durP2;ratioP2;P2;SDS_P1;SDS_P2;PMS_P1;PMS_P2;Temp;Humidity;BMP_temperature;BMP_pressure;BME280_temperature;BME280_humidity;BME280_pressure;Samples;Min_cycle;Max_cycle;Signal;HPM_P1;HPM_P2
2023/11/29 00:02:06;;;;;;;2.53;2.40;;;;;;;;;;6258805;28;20291;-70
2023/11/29 00:05:12;;;;;;;2.10;2.10;;;;;;;;;;6257992;28;20430;-70
2023/11/29 00:08:18;;;;;;;2.37;2.37;;;;;;;;;;6259037;28;20292;-69
2023/11/29 00:11:22;;;;;;;2.30;2.10;;;;;;;;;;6258747;28;20299;-70
2023/11/29 00:14:27;;;;;;;2.07;2.07;;;;;;;;;;6265022;28;20304;-72
2023/11/29 00:17:32;;;;;;;2.07;2.00;;;;;;;;;;6265987;28;20326;-71
2023/11/29 00:20:36;;;;;;;1.77;1.73;;;;;;;;;;6266503;28;20291;-69
2023/11/29 00:23:39;;;;;;;1.83;1.70;;;;;;;;;;6282457;28;20306;-68
2023/11/29 00:26:43;;;;;;;1.50;1.50;;;;;;;;;;6282385;28;20235;-69
2023/11/29 00:29:48;;;;;;;1.60;1.60;;;;;;;;;;6283202;28;20484;-72
2023/11/29 00:32:53;;;;;;;1.60;1.60;;;;;;;;;;6281786;28;20318;-75
2023/11/29 00:35:57;;;;;;;1.30;1.30;;;;;;;;;;6271404;28;20544;-69
2023/11/29 00:39:01;;;;;;;1.20;1.20;;;;;;;;;;6208944;28;20292;-69
2023/11/29 00:42:05;;;;;;;1.30;1.30;;;;;;;;;;6242578;28;20292;-70
2023/11/29 00:45:10;;;;;;;1.20;1.20;;;;;;;;;;6256636;28;20298;-69
2023/11/29 00:48:16;;;;;;;1.70;1.10;;;;;;;;;;6253006;28;20236;-70
2023/11/29 00:51:20;;;;;;;1.00;1.00;;;;;;;;;;6238442;28;20348;-69
2023/11/29 00:54:24;;;;;;;1.13;1.13;;;;;;;;;;6257654;28;20291;-70
2023/11/29 00:57:28;;;;;;;1.23;1.20;;;;;;;;;;6257910;28;20374;-69
2023/11/29 01:00:31;;;;;;;1.33;1.30;;;;;;;;;;6246396;28;20307;-69
2023/11/29 01:03:36;;;;;;;2.00;1.30;;;;;;;;;;6257175;28;20287;-69
2023/11/29 01:06:41;;;;;;;1.27;1.27;;;;;;;;;;6257777;28;20595;-69
2023/11/29 01:09:46;;;;;;;1.10;1.10;;;;;;;;;;6256349;28;20629;-69
2023/11/29 01:12:51;;;;;;;1.30;1.30;;;;;;;;;;6245066;28;20348;-68
2023/11/29 01:15:55;;;;;;;1.10;1.10;;;;;;;;;;6255901;28;20491;-69
2023/11/29 01:19:00;;;;;;;1.30;1.30;;;;;;;;;;6257055;28;20307;-69
2023/11/29 01:22:05;;;;;;;1.10;1.10;;;;;;;;;;6255145;28;20294;-71
2023/11/29 01:25:09;;;;;;;1.00;1.00;;;;;;;;;;6264308;28;20312;-69
2023/11/29 01:28:13;;;;;;;1.10;1.10;;;;;;;;;;6255439;28;20300;-69
2023/11/29 01:31:18;;;;;;;1.47;1.37;;;;;;;;;;6256519;28;20307;-71
2023/11/29 01:34:24;;;;;;;1.23;1.13;;;;;;;;;;6243366;28;20297;-71
2023/11/29 01:37:28;;;;;;;1.30;1.30;;;;;;;;;;6256825;28;20297;-69
2023/11/29 01:40:32;;;;;;;1.63;1.63;;;;;;;;;;6255391;28;20592;-69
2023/11/29 01:43:35;;;;;;;1.97;1.90;;;;;;;;;;6255783;28;20365;-69
2023/11/29 01:46:40;;;;;;;2.60;1.90;;;;;;;;;;6256460;28;20531;-69
2023/11/29 01:49:46;;;;;;;2.07;2.00;;;;;;;;;;6254420;28;20293;-68
2023/11/29 01:52:50;;;;;;;2.10;2.00;;;;;;;;;;6254958;28;20289;-70
2023/11/29 01:55:54;;;;;;;2.30;2.20;;;;;;;;;;6254705;28;20419;-69
2023/11/29 01:58:58;;;;;;;2.20;2.10;;;;;;;;;;6254588;28;20355;-69
2023/11/29 02:02:02;;;;;;;2.30;2.20;;;;;;;;;;6255345;28;20478;-69
2023/11/29 02:05:08;;;;;;;2.40;2.20;;;;;;;;;;6256109;28;20291;-69
2023/11/29 02:08:12;;;;;;;2.40;2.30;;;;;;;;;;6256313;28;20300;-70
2023/11/29 02:11:18;;;;;;;1.97;1.97;;;;;;;;;;6265168;28;20289;-68
2023/11/29 02:14:22;;;;;;;1.97;1.97;;;;;;;;;;6278566;28;20331;-69
2023/11/29 02:17:26;;;;;;;2.13;2.03;;;;;;;;;;6279780;28;20295;-68
2023/11/29 02:20:32;;;;;;;2.40;2.30;;;;;;;;;;6281376;28;20302;-69
2023/11/29 02:23:42;;;;;;;2.37;2.27;;;;;;;;;;6251004;28;20297;-69
2023/11/29 02:26:49;;;;;;;2.40;2.40;;;;;;;;;;6270647;28;20299;-68
2023/11/29 02:29:52;;;;;;;3.10;2.90;;;;;;;;;;6272052;28;20418;-68
2023/11/29 02:32:56;;;;;;;2.80;2.70;;;;;;;;;;6278190;28;20583;-68
2023/11/29 02:36:00;;;;;;;2.73;2.53;;;;;;;;;;6278788;28;20289;-69
2023/11/29 02:39:04;;;;;;;3.13;3.03;;;;;;;;;;6259836;28;20319;-69
2023/11/29 02:42:09;;;;;;;3.20;3.00;;;;;;;;;;6255845;28;20314;-70
2023/11/29 02:45:13;;;;;;;3.47;3.27;;;;;;;;;;6254127;28;20304;-68
2023/11/29 02:48:17;;;;;;;3.60;3.30;;;;;;;;;;6254002;28;20288;-69
2023/11/29 02:51:21;;;;;;;3.10;2.90;;;;;;;;;;6253338;28;20302;-68
2023/11/29 02:54:27;;;;;;;2.37;2.37;;;;;;;;;;6250775;28;20318;-69
2023/11/29 02:57:32;;;;;;;2.20;2.10;;;;;;;;;;6263705;28;20302;-69
2023/11/29 03:00:36;;;;;;;2.17;2.17;;;;;;;;;;6253867;28;20594;-69
2023/11/29 03:03:39;;;;;;;2.37;2.27;;;;;;;;;;6254913;28;20468;-68
2023/11/29 03:06:43;;;;;;;2.73;2.30;;;;;;;;;;6255420;28;20301;-72
2023/11/29 03:09:47;;;;;;;2.43;2.27;;;;;;;;;;6254881;28;20307;-71
2023/11/29 03:12:53;;;;;;;1.77;1.77;;;;;;;;;;6279615;28;20298;-69
2023/11/29 03:15:59;;;;;;;2.10;2.00;;;;;;;;;;6278288;28;20291;-69
2023/11/29 03:19:03;;;;;;;1.80;1.80;;;;;;;;;;6277706;28;20603;-69
2023/11/29 03:22:07;;;;;;;2.10;2.10;;;;;;;;;;6278201;28;20325;-70
2023/11/29 03:25:10;;;;;;;2.10;2.10;;;;;;;;;;6279289;28;20290;-68
2023/11/29 03:28:16;;;;;;;2.23;1.97;;;;;;;;;;6283441;28;20299;-73
2023/11/29 03:31:19;;;;;;;2.13;2.00;;;;;;;;;;6282945;28;20550;-69
2023/11/29 03:34:23;;;;;;;1.97;1.97;;;;;;;;;;6281794;28;20300;-71
2023/11/29 03:37:27;;;;;;;2.10;2.10;;;;;;;;;;6282657;28;20297;-70
2023/11/29 03:40:31;;;;;;;2.13;2.13;;;;;;;;;;6282578;28;20489;-69
2023/11/29 03:43:36;;;;;;;2.10;2.00;;;;;;;;;;6257219;28;20291;-69
2023/11/29 03:46:40;;;;;;;2.20;1.90;;;;;;;;;;6276096;28;20289;-69
2023/11/29 03:49:44;;;;;;;2.30;2.10;;;;;;;;;;6257381;28;20240;-67
2023/11/29 03:52:48;;;;;;;2.00;2.00;;;;;;;;;;6259458;28;20303;-69
2023/11/29 03:55:52;;;;;;;2.33;2.23;;;;;;;;;;6258735;28;20303;-70
2023/11/29 03:58:57;;;;;;;2.00;2.00;;;;;;;;;;6257752;28;20308;-69
2023/11/29 04:02:01;;;;;;;3.10;2.17;;;;;;;;;;6257535;28;20587;-69
2023/11/29 04:05:06;;;;;;;1.90;1.90;;;;;;;;;;6237631;28;20316;-68
2023/11/29 04:08:11;;;;;;;2.00;2.00;;;;;;;;;;6272161;28;20234;-68
2023/11/29 04:11:15;;;;;;;2.00;2.00;;;;;;;;;;6258701;28;20443;-70
2023/11/29 04:14:20;;;;;;;2.27;2.17;;;;;;;;;;6257332;28;20296;-70
2023/11/29 04:17:25;;;;;;;2.07;2.03;;;;;;;;;;6263655;28;20307;-68
2023/11/29 04:20:29;;;;;;;2.23;2.03;;;;;;;;;;6217933;28;20304;-70
2023/11/29 04:23:34;;;;;;;2.00;2.00;;;;;;;;;;6256752;28;20293;-67
2023/11/29 04:26:39;;;;;;;2.23;2.00;;;;;;;;;;6255982;28;20314;-69
2023/11/29 04:29:44;;;;;;;2.53;2.43;;;;;;;;;;6272636;28;20306;-68
2023/11/29 04:32:48;;;;;;;2.50;2.03;;;;;;;;;;6282755;28;20557;-74
2023/11/29 04:35:54;;;;;;;2.43;2.07;;;;;;;;;;6282429;28;20306;-70
2023/11/29 04:38:58;;;;;;;2.00;2.00;;;;;;;;;;6268947;28;20294;-69
2023/11/29 04:42:02;;;;;;;2.00;1.90;;;;;;;;;;6255075;28;20313;-69
2023/11/29 04:45:08;;;;;;;1.87;1.87;;;;;;;;;;6256484;28;20291;-70
2023/11/29 04:48:12;;;;;;;2.97;2.33;;;;;;;;;;6257914;28;20447;-71
2023/11/29 04:51:16;;;;;;;2.57;2.37;;;;;;;;;;6256795;28;20250;-70
2023/11/29 04:54:22;;;;;;;3.63;2.37;;;;;;;;;;6263664;28;20483;-69
2023/11/29 04:57:26;;;;;;;2.30;2.20;;;;;;;;;;6257391;28;20299;-69
2023/11/29 05:00:31;;;;;;;2.43;2.33;;;;;;;;;;6256944;28;20486;-69
2023/11/29 05:03:36;;;;;;;2.57;2.47;;;;;;;;;;6256773;28;20306;-69
2023/11/29 05:06:40;;;;;;;2.27;2.17;;;;;;;;;;6257082;28;20306;-69
2023/11/29 05:09:44;;;;;;;2.63;2.43;;;;;;;;;;6257113;28;20311;-69
2023/11/29 05:12:48;;;;;;;2.93;2.53;;;;;;;;;;6267968;28;20302;-70
2023/11/29 05:15:53;;;;;;;2.57;2.47;;;;;;;;;;6256973;28;20628;-69
2023/11/29 05:18:57;;;;;;;2.30;2.23;;;;;;;;;;6257232;28;20308;-70
2023/11/29 05:22:01;;;;;;;2.80;2.70;;;;;;;;;;6256976;28;20295;-69
2023/11/29 05:25:05;;;;;;;2.90;2.80;;;;;;;;;;6256873;28;20303;-68
2023/11/29 05:28:09;;;;;;;2.90;2.70;;;;;;;;;;6257044;28;20600;-70
2023/11/29 05:31:14;;;;;;;2.90;2.70;;;;;;;;;;6243931;28;20304;-71
2023/11/29 05:34:18;;;;;;;2.73;2.63;;;;;;;;;;6205945;28;20323;-71
2023/11/29 05:37:22;;;;;;;2.70;2.60;;;;;;;;;;6207409;28;20296;-68
2023/11/29 05:40:26;;;;;;;3.30;3.10;;;;;;;;;;6207240;28;20453;-68
2023/11/29 05:43:29;;;;;;;2.90;2.70;;;;;;;;;;6207777;28;20315;-68
2023/11/29 05:46:35;;;;;;;2.60;2.50;;;;;;;;;;6207214;28;20299;-71
2023/11/29 05:49:39;;;;;;;2.60;2.40;;;;;;;;;;6206325;28;20320;-69
2023/11/29 05:52:43;;;;;;;3.00;2.70;;;;;;;;;;6225608;28;20617;-71
2023/11/29 05:55:47;;;;;;;2.53;2.43;;;;;;;;;;6228662;28;20294;-70
2023/11/29 05:58:50;;;;;;;2.57;2.47;;;;;;;;;;6229457;28;20332;-69
2023/11/29 06:01:58;;;;;;;5.63;3.50;;;;;;;;;;6212881;28;20306;-68
2023/11/29 06:05:04;;;;;;;6.60;3.03;;;;;;;;;;6231375;28;20315;-70
2023/11/29 06:08:08;;;;;;;3.53;2.93;;;;;;;;;;6232055;28;20635;-71
2023/11/29 06:11:12;;;;;;;4.87;2.77;;;;;;;;;;6239207;28;20435;-69
2023/11/29 06:14:19;;;;;;;4.03;3.07;;;;;;;;;;6225742;28;20299;-69
2023/11/29 06:17:25;;;;;;;3.77;2.67;;;;;;;;;;6255417;28;20306;-68
2023/11/29 06:20:35;;;;;;;4.50;3.10;;;;;;;;;;6255424;28;20302;-69
2023/11/29 06:23:41;;;;;;;4.00;3.23;;;;;;;;;;6255645;28;20327;-69
2023/11/29 06:26:47;;;;;;;3.00;2.80;;;;;;;;;;6255314;28;20354;-69
2023/11/29 06:29:51;;;;;;;3.40;2.77;;;;;;;;;;6253078;28;20303;-70
2023/11/29 06:32:57;;;;;;;3.10;2.90;;;;;;;;;;6266997;28;20303;-69
2023/11/29 06:36:02;;;;;;;3.27;2.83;;;;;;;;;;6253841;28;20288;-68
2023/11/29 06:39:09;;;;;;;5.53;3.00;;;;;;;;;;6255295;28;20296;-69
2023/11/29 06:42:14;;;;;;;7.53;2.87;;;;;;;;;;6247401;28;20385;-68
2023/11/29 06:45:19;;;;;;;3.07;2.63;;;;;;;;;;6239616;28;20287;-70
2023/11/29 06:48:25;;;;;;;3.37;2.93;;;;;;;;;;6238581;28;20288;-69
2023/11/29 06:51:29;;;;;;;3.13;2.80;;;;;;;;;;6246076;28;20300;-70
2023/11/29 06:54:33;;;;;;;4.93;2.90;;;;;;;;;;6254813;28;20297;-69
2023/11/29 06:57:37;;;;;;;5.80;3.30;;;;;;;;;;6254450;28;20302;-70
2023/11/29 07:00:43;;;;;;;2.93;2.73;;;;;;;;;;6256194;28;20310;-69
2023/11/29 07:03:49;;;;;;;3.83;2.93;;;;;;;;;;6259873;28;20302;-69
2023/11/29 07:06:53;;;;;;;5.40;3.37;;;;;;;;;;6259504;28;20560;-70
2023/11/29 07:09:57;;;;;;;6.00;3.60;;;;;;;;;;6259358;28;20294;-69
2023/11/29 07:13:02;;;;;;;4.00;2.93;;;;;;;;;;6247577;28;20487;-69
2023/11/29 07:16:07;;;;;;;6.17;3.37;;;;;;;;;;6243565;28;20328;-70
2023/11/29 07:19:13;;;;;;;8.13;3.43;;;;;;;;;;6251294;28;20475;-69
2023/11/29 07:22:17;;;;;;;9.80;3.83;;;;;;;;;;6259156;28;20320;-69
2023/11/29 07:25:21;;;;;;;5.13;3.57;;;;;;;;;;6258768;28;20299;-68
2023/11/29 07:28:25;;;;;;;6.53;3.50;;;;;;;;;;6259332;28;20374;-68
2023/11/29 07:31:29;;;;;;;3.90;3.50;;;;;;;;;;6259185;28;20311;-69
2023/11/29 07:34:34;;;;;;;4.90;3.57;;;;;;;;;;6257762;28;20546;-69
2023/11/29 07:37:38;;;;;;;10.13;3.57;;;;;;;;;;6259120;28;20423;-69
2023/11/29 07:40:42;;;;;;;4.70;3.00;;;;;;;;;;6258616;28;20287;-68
2023/11/29 07:43:46;;;;;;;3.97;3.57;;;;;;;;;;6257282;28;20293;-68
2023/11/29 07:46:51;;;;;;;4.47;3.07;;;;;;;;;;6234497;28;20298;-69
2023/11/29 07:49:56;;;;;;;7.60;3.30;;;;;;;;;;6236918;28;20302;-69
2023/11/29 07:53:00;;;;;;;3.50;3.20;;;;;;;;;;6269188;28;20250;-69
2023/11/29 07:56:04;;;;;;;3.47;3.17;;;;;;;;;;6262224;28;20321;-68
2023/11/29 07:59:09;;;;;;;4.60;3.30;;;;;;;;;;6262820;28;20502;-69
2023/11/29 08:02:13;;;;;;;3.50;3.20;;;;;;;;;;6263155;28;20304;-74
2023/11/29 08:05:24;;;;;;;7.80;2.97;;;;;;;;;;6263668;28;20301;-68
2023/11/29 08:08:28;;;;;;;4.00;2.77;;;;;;;;;;6265918;28;20405;-69
2023/11/29 08:11:33;;;;;;;3.57;2.70;;;;;;;;;;6263110;28;20358;-70
2023/11/29 08:14:37;;;;;;;8.13;2.93;;;;;;;;;;6225993;28;20305;-69
2023/11/29 08:17:41;;;;;;;3.47;3.20;;;;;;;;;;6223083;28;20323;-68
2023/11/29 08:20:46;;;;;;;4.07;3.00;;;;;;;;;;6209257;28;20299;-70
2023/11/29 08:23:52;;;;;;;3.97;3.50;;;;;;;;;;6216140;28;20335;-69
2023/11/29 08:26:56;;;;;;;3.93;3.00;;;;;;;;;;6257836;28;20429;-68
2023/11/29 08:30:00;;;;;;;5.57;3.70;;;;;;;;;;6260881;28;20307;-68
2023/11/29 08:33:04;;;;;;;3.77;3.27;;;;;;;;;;6280951;28;20547;-70
2023/11/29 08:36:11;;;;;;;3.90;3.60;;;;;;;;;;6281929;28;20830;-70
2023/11/29 08:39:14;;;;;;;4.10;3.70;;;;;;;;;;6282229;28;20345;-69
2023/11/29 08:42:19;;;;;;;3.90;3.60;;;;;;;;;;6269540;28;20297;-70
2023/11/29 08:45:23;;;;;;;4.97;3.33;;;;;;;;;;6232360;28;20612;-69
2023/11/29 08:48:27;;;;;;;7.07;3.40;;;;;;;;;;6241349;28;20303;-69
2023/11/29 08:51:32;;;;;;;3.83;3.53;;;;;;;;;;6232471;28;20297;-69
2023/11/29 08:54:36;;;;;;;3.47;3.27;;;;;;;;;;6232942;28;20290;-68
2023/11/29 08:57:40;;;;;;;9.60;3.73;;;;;;;;;;6232594;28;20291;-69
2023/11/29 09:00:44;;;;;;;4.07;3.67;;;;;;;;;;6232365;28;20301;-68
2023/11/29 09:03:48;;;;;;;8.10;3.70;;;;;;;;;;6232670;28;20314;-70
2023/11/29 09:06:53;;;;;;;9.80;3.63;;;;;;;;;;6231981;28;20315;-69
2023/11/29 09:09:58;;;;;;;3.97;3.40;;;;;;;;;;6240066;28;20646;-69
2023/11/29 09:13:05;;;;;;;7.07;3.37;;;;;;;;;;6236372;28;20314;-70
2023/11/29 09:16:11;;;;;;;3.70;3.50;;;;;;;;;;6231875;28;20481;-69
2023/11/29 09:19:14;;;;;;;6.00;3.57;;;;;;;;;;6216861;28;20302;-70
2023/11/29 09:22:21;;;;;;;3.63;3.17;;;;;;;;;;6256940;28;20306;-70
2023/11/29 09:25:25;;;;;;;4.57;3.20;;;;;;;;;;6256035;28;20629;-69
2023/11/29 09:28:29;;;;;;;5.13;2.70;;;;;;;;;;6256489;28;20308;-70
2023/11/29 09:31:33;;;;;;;4.43;3.20;;;;;;;;;;6256301;28;20487;-69
2023/11/29 09:34:37;;;;;;;3.43;3.10;;;;;;;;;;6254904;28;20299;-71
2023/11/29 09:37:42;;;;;;;4.83;2.70;;;;;;;;;;6255960;28;20731;-68
2023/11/29 09:40:46;;;;;;;3.00;2.80;;;;;;;;;;6256131;28;20302;-68
2023/11/29 09:43:50;;;;;;;2.70;2.60;;;;;;;;;;6256588;28;20293;-69
2023/11/29 09:46:54;;;;;;;2.53;2.53;;;;;;;;;;6256022;28;20492;-71
2023/11/29 09:50:00;;;;;;;2.90;2.70;;;;;;;;;;6255750;28;20294;-70
2023/11/29 09:53:06;;;;;;;2.53;2.53;;;;;;;;;;6255985;28;20307;-70
2023/11/29 09:56:10;;;;;;;2.97;2.70;;;;;;;;;;6255793;28;20307;-68
2023/11/29 09:59:15;;;;;;;2.60;2.50;;;;;;;;;;6256082;28;20322;-68
2023/11/29 10:02:21;;;;;;;2.60;2.50;;;;;;;;;;6255847;28;20294;-68
2023/11/29 10:05:26;;;;;;;3.00;2.87;;;;;;;;;;6254179;28;20299;-68
2023/11/29 10:08:31;;;;;;;2.73;2.63;;;;;;;;;;6256026;28;20313;-69
2023/11/29 10:11:36;;;;;;;2.10;2.10;;;;;;;;;;6255179;28;20363;-68
2023/11/29 10:14:41;;;;;;;2.73;2.53;;;;;;;;;;6260761;28;20235;-69
2023/11/29 10:17:45;;;;;;;2.90;2.80;;;;;;;;;;6255693;28;20350;-68
2023/11/29 10:20:50;;;;;;;3.03;2.67;;;;;;;;;;6271619;28;20286;-69
2023/11/29 10:24:11;;;;;;;2.43;2.43;;;;;;;;;;6280871;28;20302;-69
2023/11/29 10:27:17;;;;;;;2.53;2.40;;;;;;;;;;6279327;28;20298;-69
2023/11/29 10:30:21;;;;;;;2.60;2.50;;;;;;;;;;6279819;28;20291;-69
2023/11/29 10:33:25;;;;;;;2.67;2.47;;;;;;;;;;6278481;28;20611;-69
2023/11/29 10:36:29;;;;;;;2.73;2.60;;;;;;;;;;6277847;28;20314;-69
2023/11/29 10:39:36;;;;;;;2.57;2.47;;;;;;;;;;6278866;28;20295;-69
2023/11/29 10:42:40;;;;;;;2.73;2.57;;;;;;;;;;6213355;28;20310;-69
2023/11/29 10:45:46;;;;;;;2.70;2.70;;;;;;;;;;6239320;28;20282;-69
2023/11/29 10:48:53;;;;;;;2.80;2.70;;;;;;;;;;6255352;28;20461;-69
2023/11/29 10:51:59;;;;;;;2.47;2.47;;;;;;;;;;6254776;28;20331;-70
2023/11/29 10:55:05;;;;;;;2.80;2.70;;;;;;;;;;6254662;28;20299;-69
2023/11/29 10:58:20;;;;;;;2.87;2.77;;;;;;;;;;6255276;28;20311;-68
2023/11/29 11:01:34;;;;;;;2.60;2.50;;;;;;;;;;6254579;28;20295;-70
2023/11/29 11:04:45;;;;;;;2.50;2.50;;;;;;;;;;6254645;28;20316;-67
2023/11/29 11:07:49;;;;;;;2.60;2.40;;;;;;;;;;6255006;28;20283;-67
2023/11/29 11:10:54;;;;;;;2.90;2.70;;;;;;;;;;6254712;28;20500;-69
2023/11/29 11:13:58;;;;;;;2.60;2.40;;;;;;;;;;6263405;28;20618;-69
2023/11/29 11:17:06;;;;;;;2.20;2.20;;;;;;;;;;6258173;28;20612;-71
2023/11/29 11:20:11;;;;;;;2.90;2.47;;;;;;;;;;6259536;28;20236;-69
2023/11/29 11:23:17;;;;;;;2.40;2.30;;;;;;;;;;6260695;28;20303;-70
2023/11/29 11:26:23;;;;;;;2.33;2.33;;;;;;;;;;6260133;28;20308;-70
2023/11/29 11:29:30;;;;;;;2.17;2.17;;;;;;;;;;6279641;28;20318;-70
2023/11/29 11:32:44;;;;;;;2.50;2.40;;;;;;;;;;6262062;28;20299;-69
2023/11/29 11:35:48;;;;;;;2.30;2.30;;;;;;;;;;6268391;28;20295;-71
2023/11/29 11:38:52;;;;;;;2.30;2.20;;;;;;;;;;6285246;28;20304;-69
2023/11/29 11:41:58;;;;;;;2.00;2.00;;;;;;;;;;6275249;28;20424;-70
2023/11/29 11:45:02;;;;;;;2.03;2.03;;;;;;;;;;6278436;28;20307;-69
2023/11/29 11:48:07;;;;;;;2.30;2.20;;;;;;;;;;6281026;28;20290;-68
2023/11/29 11:51:12;;;;;;;2.23;2.23;;;;;;;;;;6272126;28;20303;-68
2023/11/29 11:54:15;;;;;;;2.10;2.10;;;;;;;;;;6284191;28;20298;-68
2023/11/29 11:57:21;;;;;;;2.23;2.23;;;;;;;;;;6266520;28;20283;-68
2023/11/29 12:00:24;;;;;;;2.33;2.23;;;;;;;;;;6258944;28;20296;-70
2023/11/29 12:03:28;;;;;;;2.70;2.60;;;;;;;;;;6258699;28;20300;-70
2023/11/29 12:06:32;;;;;;;2.30;2.30;;;;;;;;;;6258465;28;20288;-67
2023/11/29 12:09:36;;;;;;;2.23;2.10;;;;;;;;;;6255181;28;20298;-69
2023/11/29 12:12:43;;;;;;;2.20;2.20;;;;;;;;;;6275125;28;20283;-69
2023/11/29 12:15:47;;;;;;;2.30;2.10;;;;;;;;;;6282436;28;20290;-68
2023/11/29 12:18:50;;;;;;;2.50;2.40;;;;;;;;;;6283445;28;20322;-69
2023/11/29 12:21:54;;;;;;;2.20;2.20;;;;;;;;;;6282886;28;20630;-67
2023/11/29 12:24:58;;;;;;;2.40;2.40;;;;;;;;;;6282400;28;20348;-68
2023/11/29 12:28:03;;;;;;;2.33;2.23;;;;;;;;;;6282504;28;20326;-69
2023/11/29 12:31:07;;;;;;;2.70;2.60;;;;;;;;;;6282427;28;20298;-69
2023/11/29 12:34:11;;;;;;;2.67;2.57;;;;;;;;;;6280968;28;20290;-69
2023/11/29 12:37:15;;;;;;;2.60;2.50;;;;;;;;;;6281969;28;20306;-68
2023/11/29 12:40:20;;;;;;;2.70;2.50;;;;;;;;;;6282188;28;20285;-68
2023/11/29 12:43:25;;;;;;;2.10;2.00;;;;;;;;;;6282418;28;20293;-68
2023/11/29 12:46:29;;;;;;;2.10;2.10;;;;;;;;;;6281870;28;20250;-70
2023/11/29 12:49:33;;;;;;;2.10;2.10;;;;;;;;;;6282371;28;20620;-70
2023/11/29 12:52:37;;;;;;;2.07;1.93;;;;;;;;;;6281971;28;20296;-69
2023/11/29 12:55:40;;;;;;;2.07;2.07;;;;;;;;;;6281976;28;20609;-68
2023/11/29 12:58:46;;;;;;;1.90;1.90;;;;;;;;;;6282259;28;20286;-69
2023/11/29 13:01:49;;;;;;;1.80;1.70;;;;;;;;;;6281719;28;20319;-68
2023/11/29 13:04:53;;;;;;;1.93;1.83;;;;;;;;;;6281739;28;20299;-69
2023/11/29 13:07:57;;;;;;;2.00;1.90;;;;;;;;;;6281931;28;20298;-69
2023/11/29 13:11:01;;;;;;;1.73;1.63;;;;;;;;;;6259558;28;20347;-68
2023/11/29 13:14:07;;;;;;;2.20;2.10;;;;;;;;;;6277869;28;20316;-69
2023/11/29 13:17:12;;;;;;;2.30;2.17;;;;;;;;;;6280773;28;20320;-68
2023/11/29 13:20:16;;;;;;;2.10;2.10;;;;;;;;;;6281157;28;20281;-69
2023/11/29 13:23:20;;;;;;;2.60;2.40;;;;;;;;;;6281347;28;20297;-68
2023/11/29 13:26:24;;;;;;;4.43;2.13;;;;;;;;;;6280695;28;20299;-68
2023/11/29 13:29:29;;;;;;;1.80;1.80;;;;;;;;;;6281320;28;20505;-69
2023/11/29 13:32:33;;;;;;;1.77;1.77;;;;;;;;;;6280460;28;20303;-68
2023/11/29 13:35:38;;;;;;;1.60;1.60;;;;;;;;;;6278271;28;20309;-70
2023/11/29 13:38:42;;;;;;;1.93;1.70;;;;;;;;;;6280833;28;20301;-69
2023/11/29 13:41:46;;;;;;;2.20;2.10;;;;;;;;;;6280467;28;20304;-70
2023/11/29 13:44:51;;;;;;;4.97;2.30;;;;;;;;;;6279214;28;20669;-70
2023/11/29 13:47:55;;;;;;;2.23;2.13;;;;;;;;;;6280901;28;20302;-68
2023/11/29 13:50:59;;;;;;;1.80;1.80;;;;;;;;;;6280387;28;20626;-69
2023/11/29 13:54:03;;;;;;;2.13;1.97;;;;;;;;;;6207684;28;20567;-69
2023/11/29 13:57:07;;;;;;;2.00;1.90;;;;;;;;;;6240189;28;20335;-70
2023/11/29 14:00:13;;;;;;;2.73;1.93;;;;;;;;;;6255610;28;20301;-71
2023/11/29 14:03:17;;;;;;;2.40;2.33;;;;;;;;;;6255900;28;20296;-69
2023/11/29 14:06:34;;;;;;;2.10;2.10;;;;;;;;;;6255669;28;20283;-69
2023/11/29 14:09:38;;;;;;;2.07;1.80;;;;;;;;;;6254718;28;20282;-69
2023/11/29 14:12:43;;;;;;;1.73;1.70;;;;;;;;;;6264438;28;20300;-69
2023/11/29 14:15:48;;;;;;;1.63;1.57;;;;;;;;;;6280084;28;20328;-68
2023/11/29 14:18:52;;;;;;;1.90;1.83;;;;;;;;;;6280249;28;20586;-69
2023/11/29 14:21:56;;;;;;;1.87;1.77;;;;;;;;;;6278251;28;20302;-70
2023/11/29 14:25:00;;;;;;;2.07;1.90;;;;;;;;;;6279814;28;20287;-69
2023/11/29 14:28:03;;;;;;;2.33;2.13;;;;;;;;;;6279851;28;20300;-68
2023/11/29 14:31:12;;;;;;;2.53;1.93;;;;;;;;;;6279938;28;20243;-69
2023/11/29 14:34:16;;;;;;;2.10;1.97;;;;;;;;;;6278385;28;20308;-68
2023/11/29 14:37:20;;;;;;;1.97;1.97;;;;;;;;;;6279593;28;20331;-68
2023/11/29 14:40:23;;;;;;;2.30;2.10;;;;;;;;;;6279870;28;20623;-70
2023/11/29 14:43:27;;;;;;;2.20;2.10;;;;;;;;;;6279894;28;20380;-70
2023/11/29 14:46:32;;;;;;;1.80;1.80;;;;;;;;;;6279500;28;20443;-70
2023/11/29 14:49:36;;;;;;;1.97;1.77;;;;;;;;;;6280123;28;20286;-70
2023/11/29 14:52:40;;;;;;;1.60;1.60;;;;;;;;;;6271546;28;20288;-68
2023/11/29 14:55:44;;;;;;;2.10;2.10;;;;;;;;;;6279637;28;20316;-69
2023/11/29 14:58:48;;;;;;;1.80;1.80;;;;;;;;;;6279624;28;20300;-69
2023/11/29 15:01:53;;;;;;;1.87;1.87;;;;;;;;;;6278957;28;20305;-70
2023/11/29 15:04:57;;;;;;;1.70;1.70;;;;;;;;;;6279600;28;20304;-68
2023/11/29 15:08:01;;;;;;;1.77;1.77;;;;;;;;;;6280048;28;20289;-69
2023/11/29 15:11:05;;;;;;;2.00;2.00;;;;;;;;;;6275579;28;20408;-68
2023/11/29 15:14:09;;;;;;;4.70;2.47;;;;;;;;;;6225424;28;20301;-69
2023/11/29 15:17:14;;;;;;;2.03;2.03;;;;;;;;;;6218700;28;20304;-69
2023/11/29 15:20:18;;;;;;;1.90;1.80;;;;;;;;;;6276809;28;20534;-69
2023/11/29 15:23:22;;;;;;;1.80;1.80;;;;;;;;;;6284143;28;20321;-69
2023/11/29 15:26:26;;;;;;;2.33;2.23;;;;;;;;;;6284096;28;20426;-69
2023/11/29 15:29:30;;;;;;;2.00;2.00;;;;;;;;;;6284195;28;20320;-69
2023/11/29 15:32:38;;;;;;;2.20;2.20;;;;;;;;;;6283069;28;20437;-69
2023/11/29 15:35:42;;;;;;;1.90;1.90;;;;;;;;;;6281778;28;20306;-69
2023/11/29 15:38:48;;;;;;;2.20;2.10;;;;;;;;;;6284038;28;20294;-69
2023/11/29 15:41:53;;;;;;;2.00;1.90;;;;;;;;;;6283928;28;20303;-69
2023/11/29 15:45:02;;;;;;;2.07;2.07;;;;;;;;;;6283628;28;20808;-69
2023/11/29 15:48:07;;;;;;;1.80;1.80;;;;;;;;;;6283580;28;20291;-70
2023/11/29 15:51:11;;;;;;;1.90;1.80;;;;;;;;;;6283235;28;20599;-69
2023/11/29 15:54:14;;;;;;;2.17;2.07;;;;;;;;;;6283810;28;20295;-68
2023/11/29 15:57:20;;;;;;;1.80;1.80;;;;;;;;;;6283805;28;20310;-69
2023/11/29 16:00:24;;;;;;;4.20;2.10;;;;;;;;;;6283602;28;20282;-69
2023/11/29 16:03:31;;;;;;;2.37;2.27;;;;;;;;;;6283634;28;20286;-69
2023/11/29 16:06:35;;;;;;;3.43;2.50;;;;;;;;;;6275392;28;20300;-69
2023/11/29 16:09:39;;;;;;;2.10;2.10;;;;;;;;;;6282782;28;20308;-69
2023/11/29 16:12:43;;;;;;;2.20;2.10;;;;;;;;;;6276579;28;20305;-69
2023/11/29 16:15:47;;;;;;;3.03;2.87;;;;;;;;;;6283085;28;20294;-68
2023/11/29 16:18:52;;;;;;;3.07;2.10;;;;;;;;;;6283225;28;20610;-69
2023/11/29 16:21:56;;;;;;;2.47;2.30;;;;;;;;;;6282961;28;20305;-68
2023/11/29 16:25:00;;;;;;;2.40;2.40;;;;;;;;;;6258175;28;20297;-69
2023/11/29 16:28:04;;;;;;;2.33;2.23;;;;;;;;;;6258303;28;20295;-68
2023/11/29 16:31:08;;;;;;;2.70;2.60;;;;;;;;;;6258081;28;20300;-68
2023/11/29 16:34:14;;;;;;;2.30;2.30;;;;;;;;;;6256318;28;20603;-69
2023/11/29 16:37:17;;;;;;;2.83;2.73;;;;;;;;;;6257966;28;20303;-69
2023/11/29 16:40:21;;;;;;;2.80;2.53;;;;;;;;;;6257759;28;20306;-69
2023/11/29 16:43:25;;;;;;;2.93;2.77;;;;;;;;;;6268548;28;20302;-69
2023/11/29 16:46:29;;;;;;;2.67;2.57;;;;;;;;;;6282626;28;20295;-71
2023/11/29 16:49:37;;;;;;;2.87;2.77;;;;;;;;;;6257738;28;20290;-69
2023/11/29 16:52:41;;;;;;;2.47;2.37;;;;;;;;;;6257544;28;20299;-69
2023/11/29 16:55:47;;;;;;;2.70;2.70;;;;;;;;;;6257605;28;20298;-69
2023/11/29 16:58:51;;;;;;;3.00;2.60;;;;;;;;;;6246921;28;20484;-69
2023/11/29 17:01:56;;;;;;;2.63;2.60;;;;;;;;;;6241129;28;20303;-69
2023/11/29 17:05:01;;;;;;;3.37;3.20;;;;;;;;;;6232579;28;20302;-69
2023/11/29 17:08:06;;;;;;;3.50;3.27;;;;;;;;;;6239330;28;20294;-68
2023/11/29 17:11:10;;;;;;;3.10;3.00;;;;;;;;;;6277836;28;20309;-69
2023/11/29 17:14:14;;;;;;;3.23;3.13;;;;;;;;;;6261200;28;20306;-69
2023/11/29 17:17:18;;;;;;;2.83;2.73;;;;;;;;;;6256764;28;20351;-69
2023/11/29 17:20:27;;;;;;;2.83;2.63;;;;;;;;;;6256793;28;20349;-67
2023/11/29 17:23:31;;;;;;;3.00;2.80;;;;;;;;;;6256994;28;20288;-68
2023/11/29 17:26:36;;;;;;;3.20;3.00;;;;;;;;;;6256200;28;20301;-69
2023/11/29 17:29:40;;;;;;;3.00;3.00;;;;;;;;;;6255730;28;20294;-69
2023/11/29 17:32:43;;;;;;;2.87;2.77;;;;;;;;;;6237068;28;20314;-70
2023/11/29 17:35:49;;;;;;;3.10;2.90;;;;;;;;;;6229957;28;20308;-70
2023/11/29 17:38:53;;;;;;;3.00;2.90;;;;;;;;;;6231954;28;20407;-69
2023/11/29 17:41:57;;;;;;;2.77;2.57;;;;;;;;;;6232067;28;20498;-68
2023/11/29 17:45:01;;;;;;;4.63;3.00;;;;;;;;;;6230849;28;20356;-69
2023/11/29 17:48:05;;;;;;;3.30;3.00;;;;;;;;;;6231971;28;20291;-70
2023/11/29 17:51:10;;;;;;;3.00;2.80;;;;;;;;;;6230428;28;20299;-68
2023/11/29 17:54:15;;;;;;;3.00;2.90;;;;;;;;;;6232142;28;20311;-70
2023/11/29 17:57:19;;;;;;;3.93;2.90;;;;;;;;;;6231296;28;20300;-69
2023/11/29 18:00:23;;;;;;;3.00;2.90;;;;;;;;;;6231486;28;20303;-69
2023/11/29 18:03:27;;;;;;;2.80;2.73;;;;;;;;;;6231728;28;20324;-69
2023/11/29 18:06:32;;;;;;;2.93;2.83;;;;;;;;;;6231254;28;20333;-68
2023/11/29 18:09:36;;;;;;;2.90;2.90;;;;;;;;;;6232050;28;20292;-68
2023/11/29 18:12:40;;;;;;;2.50;2.50;;;;;;;;;;6247015;28;20306;-69
2023/11/29 18:15:44;;;;;;;4.37;3.13;;;;;;;;;;6255788;28;20303;-70
2023/11/29 18:18:48;;;;;;;2.80;2.70;;;;;;;;;;6247979;28;20311;-68
2023/11/29 18:21:54;;;;;;;3.00;2.80;;;;;;;;;;6239242;28;20296;-68
2023/11/29 18:24:58;;;;;;;3.20;3.10;;;;;;;;;;6246964;28;20833;-67
2023/11/29 18:28:02;;;;;;;3.27;3.07;;;;;;;;;;6255643;28;20294;-68